createdAt,value
2019-01-23T00:00:27.798Z,-4.1
2019-01-23T00:01:27.683Z,-4.2
2019-01-23T00:02:27.575Z,-4.2
2019-01-23T00:03:27.492Z,-4.2
2019-01-23T00:04:27.381Z,-4.1
2019-01-23T00:05:27.259Z,-4
2019-01-23T00:06:27.153Z,-4
2019-01-23T00:07:27.049Z,-4
2019-01-23T00:08:26.947Z,-4
2019-01-23T00:09:27.254Z,-4.1
2019-01-23T00:10:27.144Z,-4
2019-01-23T00:11:27.017Z,-4
2019-01-23T00:12:26.903Z,-4
2019-01-23T00:13:26.798Z,-4
2019-01-23T00:14:26.695Z,-4.1
2019-01-23T00:15:26.568Z,-4.1
2019-01-23T00:16:26.453Z,-4.2
2019-01-23T00:17:26.329Z,-4.2
2019-01-23T00:18:26.216Z,-4.3
2019-01-23T00:19:26.578Z,-4.3
2019-01-23T00:20:26.484Z,-4.4
2019-01-23T00:21:26.414Z,-4.4
2019-01-23T00:22:26.328Z,-4.4
2019-01-23T00:23:26.206Z,-4.4
2019-01-23T00:24:26.126Z,-4.5
2019-01-23T00:25:26.020Z,-4.5
2019-01-23T00:26:25.916Z,-4.5
2019-01-23T00:27:25.962Z,-4.6
2019-01-23T00:28:25.851Z,-4.6
2019-01-23T00:29:26.152Z,-4.7
2019-01-23T00:30:26.087Z,-4.7
2019-01-23T00:31:25.985Z,-4.7
2019-01-23T00:32:25.884Z,-4.7
2019-01-23T00:33:25.790Z,-4.7
2019-01-23T00:34:25.767Z,-4.7
2019-01-23T00:35:25.674Z,-4.7
2019-01-23T00:36:25.566Z,-4.7
2019-01-23T00:37:25.555Z,-4.7
2019-01-23T00:38:25.457Z,-4.7
2019-01-23T00:39:25.796Z,-4.8
2019-01-23T00:40:25.705Z,-4.8
2019-01-23T00:41:25.604Z,-4.7
2019-01-23T00:42:25.485Z,-4.7
2019-01-23T00:43:25.416Z,-4.8
2019-01-23T00:44:25.309Z,-4.8
2019-01-23T00:45:25.249Z,-4.8
2019-01-23T00:46:25.192Z,-4.8
2019-01-23T00:47:25.092Z,-4.9
2019-01-23T00:48:25.140Z,-4.9
2019-01-23T00:49:25.489Z,-4.9
2019-01-23T00:50:25.450Z,-5
2019-01-23T00:51:25.378Z,-4.9
2019-01-23T00:52:25.262Z,-4.9
2019-01-23T00:53:25.155Z,-4.9
2019-01-23T00:54:25.053Z,-4.9
2019-01-23T00:55:24.964Z,-4.9
2019-01-23T00:56:24.860Z,-4.9
2019-01-23T00:57:24.748Z,-5
2019-01-23T00:58:24.644Z,-5
2019-01-23T00:59:24.946Z,-5
2019-01-23T01:00:24.828Z,-5
2019-01-23T01:01:24.720Z,-5
2019-01-23T01:02:24.612Z,-5
2019-01-23T01:03:24.535Z,-5.1
2019-01-23T01:04:24.418Z,-5
2019-01-23T01:05:24.318Z,-5.1
2019-01-23T01:06:24.236Z,-5
2019-01-23T01:07:24.139Z,-5.1
2019-01-23T01:08:24.030Z,-5.2
2019-01-23T01:09:24.349Z,-5.1
2019-01-23T01:10:24.246Z,-5.2
2019-01-23T01:11:24.141Z,-5.1
2019-01-23T01:12:24.056Z,-5.1
2019-01-23T01:14:23.675Z,-5
2019-01-23T01:15:23.564Z,-4.9
2019-01-23T01:16:23.454Z,-4.9
2019-01-23T01:17:23.387Z,-4.8
2019-01-23T01:19:23.428Z,-4.6
2019-01-23T01:20:23.316Z,-4.6
2019-01-23T01:21:23.191Z,-4.6
2019-01-23T01:22:23.080Z,-4.7
2019-01-23T01:23:22.979Z,-4.8
2019-01-23T01:24:22.862Z,-4.7
2019-01-23T01:25:22.747Z,-4.8
2019-01-23T01:26:22.611Z,-4.8
2019-01-23T01:27:22.512Z,-4.8
2019-01-23T01:28:22.416Z,-4.9
2019-01-23T01:29:26.070Z,-4.9
2019-01-23T01:30:25.998Z,-5
2019-01-23T01:31:25.872Z,-5
2019-01-23T01:32:25.752Z,-5.1
2019-01-23T01:33:25.646Z,-5.1
2019-01-23T01:34:25.537Z,-5.1
2019-01-23T01:35:25.424Z,-5.1
2019-01-23T01:36:25.318Z,-5.1
2019-01-23T01:37:25.222Z,-5.2
2019-01-23T01:38:25.300Z,-5.2
2019-01-23T01:39:25.633Z,-5.2
2019-01-23T01:40:25.506Z,-5.2
2019-01-23T01:41:25.388Z,-5.3
2019-01-23T01:42:25.270Z,-5.3
2019-01-23T01:43:25.156Z,-5.3
2019-01-23T01:44:25.071Z,-5.3
2019-01-23T01:45:25.013Z,-5.3
2019-01-23T01:46:24.893Z,-5.3
2019-01-23T01:47:24.793Z,-5.3
2019-01-23T01:48:24.699Z,-5.3
2019-01-23T01:49:25.000Z,-5.3
2019-01-23T01:50:24.917Z,-5.3
2019-01-23T01:51:24.856Z,-5.3
2019-01-23T01:52:24.752Z,-5.3
2019-01-23T01:53:24.649Z,-5.3
2019-01-23T01:54:24.542Z,-5.3
2019-01-23T01:55:24.439Z,-5.4
2019-01-23T01:56:24.350Z,-5.4
2019-01-23T01:57:24.234Z,-5.4
2019-01-23T01:58:24.110Z,-5.4
2019-01-23T01:59:24.414Z,-5.5
2019-01-23T02:00:24.308Z,-5.6
2019-01-23T02:01:24.209Z,-5.6
2019-01-23T02:05:23.330Z,-5.4
2019-01-23T02:07:23.007Z,-5.2
2019-01-23T02:08:22.895Z,-5
2019-01-23T02:09:23.204Z,-5
2019-01-23T02:10:23.075Z,-5
2019-01-23T02:11:22.970Z,-5
2019-01-23T02:12:22.869Z,-5
2019-01-23T02:13:22.782Z,-5
2019-01-23T02:14:22.652Z,-4.9
2019-01-23T02:15:22.522Z,-5
2019-01-23T02:16:22.419Z,-5
2019-01-23T02:17:22.307Z,-5
2019-01-23T02:18:22.222Z,-5.1
2019-01-23T02:19:22.535Z,-5.1
2019-01-23T02:20:22.426Z,-5.2
2019-01-23T02:21:22.317Z,-5.2
2019-01-23T02:22:22.195Z,-5.3
2019-01-23T02:23:22.086Z,-5.3
2019-01-23T02:24:21.970Z,-5.3
2019-01-23T02:25:21.861Z,-5.4
2019-01-23T02:26:21.751Z,-5.4
2019-01-23T02:27:21.629Z,-5.5
2019-01-23T02:28:21.521Z,-5.5
2019-01-23T02:29:21.841Z,-5.5
2019-01-23T02:30:21.781Z,-5.5
2019-01-23T02:31:21.680Z,-5.5
2019-01-23T02:32:21.597Z,-5.5
2019-01-23T02:33:21.517Z,-5.5
2019-01-23T02:34:21.444Z,-5.5
2019-01-23T02:35:21.340Z,-5.5
2019-01-23T02:36:21.215Z,-5.5
2019-01-23T02:37:21.094Z,-5.5
2019-01-23T02:38:21.013Z,-5.6
2019-01-23T02:39:21.335Z,-5.6
2019-01-23T02:40:21.220Z,-5.6
2019-01-23T02:41:21.093Z,-5.6
2019-01-23T02:42:20.969Z,-5.6
2019-01-23T02:43:20.869Z,-5.6
2019-01-23T02:44:20.784Z,-5.5
2019-01-23T02:45:20.695Z,-5.5
2019-01-23T02:46:20.590Z,-5.6
2019-01-23T02:47:20.477Z,-5.6
2019-01-23T02:48:20.362Z,-5.6
2019-01-23T02:49:20.686Z,-5.6
2019-01-23T02:50:20.578Z,-5.6
2019-01-23T02:51:20.519Z,-5.6
2019-01-23T02:52:20.395Z,-5.6
2019-01-23T02:53:20.262Z,-5.7
2019-01-23T02:54:20.167Z,-5.6
2019-01-23T02:55:20.081Z,-5.6
2019-01-23T02:56:19.982Z,-5.6
2019-01-23T02:57:19.881Z,-5.6
2019-01-23T02:58:19.741Z,-5.6
2019-01-23T02:59:20.055Z,-5.6
2019-01-23T03:00:19.949Z,-5.6
2019-01-23T03:01:19.845Z,-5.6
2019-01-23T03:02:19.733Z,-5.7
2019-01-23T03:03:19.631Z,-5.7
2019-01-23T03:04:19.526Z,-5.7
2019-01-23T03:05:19.410Z,-5.7
2019-01-23T03:06:19.316Z,-5.7
2019-01-23T03:07:19.223Z,-5.7
2019-01-23T03:08:19.123Z,-5.7
2019-01-23T03:09:19.414Z,-5.7
2019-01-23T03:10:19.351Z,-5.7
2019-01-23T03:11:19.241Z,-5.7
2019-01-23T03:12:19.118Z,-5.7
2019-01-23T03:13:19.007Z,-5.7
2019-01-23T03:14:18.889Z,-5.7
2019-01-23T03:15:18.789Z,-5.7
2019-01-23T03:16:18.690Z,-5.7
2019-01-23T03:17:18.608Z,-5.7
2019-01-23T03:18:18.537Z,-5.7
2019-01-23T03:19:18.839Z,-5.7
2019-01-23T03:20:18.795Z,-5.7
2019-01-23T03:21:18.697Z,-5.6
2019-01-23T03:22:18.590Z,-5.7
2019-01-23T03:23:18.519Z,-5.7
2019-01-23T03:24:18.415Z,-5.6
2019-01-23T03:25:18.300Z,-5.7
2019-01-23T03:26:18.212Z,-5.6
2019-01-23T03:27:18.115Z,-5.7
2019-01-23T03:28:18.039Z,-5.7
2019-01-23T03:29:25.206Z,-5.7
2019-01-23T03:30:25.141Z,-5.7
2019-01-23T03:31:25.059Z,-5.7
2019-01-23T03:32:25.009Z,-5.7
2019-01-23T03:33:24.906Z,-5.7
2019-01-23T03:34:24.823Z,-5.7
2019-01-23T03:35:24.725Z,-5.7
2019-01-23T03:36:24.627Z,-5.7
2019-01-23T03:37:24.529Z,-5.7
2019-01-23T03:38:24.401Z,-5.7
2019-01-23T03:39:24.705Z,-5.7
2019-01-23T03:40:25.641Z,-5.7
2019-01-23T03:41:25.537Z,-5.7
2019-01-23T03:42:25.413Z,-5.7
2019-01-23T03:43:25.302Z,-5.7
2019-01-23T03:44:25.204Z,-5.7
2019-01-23T03:45:25.100Z,-5.7
2019-01-23T03:46:25.009Z,-5.7
2019-01-23T03:47:24.890Z,-5.7
2019-01-23T03:48:24.764Z,-5.6
2019-01-23T03:49:25.131Z,-5.7
2019-01-23T03:50:25.049Z,-5.7
2019-01-23T03:51:24.969Z,-5.6
2019-01-23T03:52:24.849Z,-5.7
2019-01-23T03:53:24.721Z,-5.6
2019-01-23T03:54:24.612Z,-5.6
2019-01-23T03:55:24.500Z,-5.6
2019-01-23T03:56:24.429Z,-5.6
2019-01-23T03:57:24.315Z,-5.6
2019-01-23T03:58:24.197Z,-5.6
2019-01-23T03:59:24.528Z,-5.6
2019-01-23T04:00:32.115Z,-5.6
2019-01-23T04:01:32.053Z,-5.6
2019-01-23T04:02:31.940Z,-5.6
2019-01-23T04:03:31.827Z,-5.7
2019-01-23T04:04:31.718Z,-5.7
2019-01-23T04:05:31.813Z,-5.7
2019-01-23T04:06:31.726Z,-5.7
2019-01-23T04:07:31.652Z,-5.7
2019-01-23T04:08:31.607Z,-5.7
2019-01-23T04:09:31.903Z,-5.7
2019-01-23T04:10:31.833Z,-5.8
2019-01-23T04:11:31.725Z,-5.7
2019-01-23T04:12:31.609Z,-5.7
2019-01-23T04:14:31.235Z,-5.5
2019-01-23T04:17:30.585Z,-5.3
2019-01-23T04:18:30.502Z,-5.3
2019-01-23T04:19:30.868Z,-5.2
2019-01-23T04:20:30.762Z,-5.2
2019-01-23T04:21:30.681Z,-5.3
2019-01-23T04:22:32.084Z,-5.3
2019-01-23T04:23:31.996Z,-5.3
2019-01-23T04:24:31.907Z,-5.3
2019-01-23T04:25:31.802Z,-5.3
2019-01-23T04:26:31.671Z,-5.4
2019-01-23T04:27:31.560Z,-5.4
2019-01-23T04:28:31.500Z,-5.4
2019-01-23T04:29:31.822Z,-5.4
2019-01-23T04:30:31.699Z,-5.5
2019-01-23T04:31:31.588Z,-5.5
2019-01-23T04:32:31.489Z,-5.6
2019-01-23T04:33:31.479Z,-5.6
2019-01-23T04:34:31.355Z,-5.6
2019-01-23T04:35:31.253Z,-5.7
2019-01-23T04:36:31.189Z,-5.7
2019-01-23T04:37:31.097Z,-5.8
2019-01-23T04:38:31.003Z,-5.8
2019-01-23T04:39:31.382Z,-5.8
2019-01-23T04:40:31.291Z,-5.8
2019-01-23T04:41:31.198Z,-5.8
2019-01-23T04:42:31.108Z,-5.9
2019-01-23T04:43:31.023Z,-5.8
2019-01-23T04:44:30.922Z,-5.8
2019-01-23T04:45:30.813Z,-5.9
2019-01-23T04:46:30.704Z,-5.9
2019-01-23T04:47:30.581Z,-5.9
2019-01-23T04:48:30.504Z,-5.9
2019-01-23T04:49:30.846Z,-6
2019-01-23T04:50:30.782Z,-6
2019-01-23T04:51:30.688Z,-6
2019-01-23T04:52:30.571Z,-6
2019-01-23T04:53:30.510Z,-6
2019-01-23T04:54:30.414Z,-6
2019-01-23T04:55:30.296Z,-6.1
2019-01-23T04:56:30.190Z,-6.1
2019-01-23T04:57:30.094Z,-6.1
2019-01-23T04:58:29.980Z,-6.1
2019-01-23T04:59:30.317Z,-6.1
2019-01-23T05:00:30.241Z,-6.1
2019-01-23T05:01:30.147Z,-6.1
2019-01-23T05:02:30.030Z,-6.1
2019-01-23T05:03:29.912Z,-6.1
2019-01-23T05:04:29.834Z,-6
2019-01-23T05:05:29.722Z,-6
2019-01-23T05:06:29.617Z,-6
2019-01-23T05:07:29.491Z,-6
2019-01-23T05:08:29.388Z,-6
2019-01-23T05:09:29.730Z,-6
2019-01-23T05:10:29.662Z,-6
2019-01-23T05:11:29.553Z,-5.9
2019-01-23T05:12:29.453Z,-6
2019-01-23T05:13:29.348Z,-5.9
2019-01-23T05:14:29.262Z,-5.9
2019-01-23T05:15:29.161Z,-5.9
2019-01-23T05:16:29.059Z,-5.9
2019-01-23T05:17:28.980Z,-5.9
2019-01-23T05:18:28.858Z,-5.9
2019-01-23T05:19:29.227Z,-5.9
2019-01-23T05:20:29.147Z,-5.9
2019-01-23T05:22:28.824Z,-5.8
2019-01-23T05:29:27.639Z,-5.1
2019-01-23T05:32:27.009Z,-5
2019-01-23T05:34:26.645Z,-4.9
2019-01-23T05:35:26.549Z,-4.9
2019-01-23T05:39:26.103Z,-4.8
2019-01-23T05:40:26.001Z,-4.8
2019-01-23T05:41:25.901Z,-4.8
2019-01-23T05:42:25.801Z,-4.8
2019-01-23T05:43:25.701Z,-4.9
2019-01-23T05:44:25.612Z,-4.9
2019-01-23T05:45:25.541Z,-4.9
2019-01-23T05:46:25.475Z,-4.9
2019-01-23T05:47:25.569Z,-5
2019-01-23T05:48:25.503Z,-5
2019-01-23T05:49:25.859Z,-5
2019-01-23T05:50:25.747Z,-5.1
2019-01-23T05:51:25.644Z,-5.1
2019-01-23T05:52:25.560Z,-5.1
2019-01-23T05:53:25.446Z,-5.1
2019-01-23T05:54:25.351Z,-5.1
2019-01-23T05:55:25.283Z,-5.1
2019-01-23T05:56:25.162Z,-5.2
2019-01-23T05:57:25.059Z,-5.2
2019-01-23T05:58:24.995Z,-5.2
2019-01-23T05:59:25.341Z,-5.2
2019-01-23T06:00:25.260Z,-5.2
2019-01-23T06:01:25.151Z,-5.2
2019-01-23T06:02:25.036Z,-5.2
2019-01-23T06:03:24.975Z,-5.3
2019-01-23T06:04:24.886Z,-5.3
2019-01-23T06:05:24.807Z,-5.3
2019-01-23T06:06:24.711Z,-5.3
2019-01-23T06:07:24.656Z,-5.3
2019-01-23T06:08:24.545Z,-5.4
2019-01-23T06:09:24.936Z,-5.4
2019-01-23T06:10:24.826Z,-5.4
2019-01-23T06:11:24.702Z,-5.4
2019-01-23T06:12:24.591Z,-5.3
2019-01-23T06:13:24.479Z,-5.4
2019-01-23T06:14:24.409Z,-5.3
2019-01-23T06:15:24.314Z,-5.4
2019-01-23T06:16:24.439Z,-5.3
2019-01-23T06:17:24.339Z,-5.4
2019-01-23T06:18:24.214Z,-5.4
2019-01-23T06:19:24.550Z,-5.4
2019-01-23T06:20:24.453Z,-5.4
2019-01-23T06:21:24.331Z,-5.4
2019-01-23T06:22:24.218Z,-5.4
2019-01-23T06:24:23.869Z,-5.3
2019-01-23T06:25:23.779Z,-5.2
2019-01-23T06:29:23.259Z,-5
2019-01-23T06:30:23.180Z,-5
2019-01-23T06:31:23.067Z,-5
2019-01-23T06:32:22.940Z,-5.1
2019-01-23T06:33:22.826Z,-5.1
2019-01-23T06:34:22.717Z,-5.1
2019-01-23T06:35:22.630Z,-5.1
2019-01-23T06:36:22.521Z,-5.1
2019-01-23T06:37:22.413Z,-5.2
2019-01-23T06:38:22.306Z,-5.2
2019-01-23T06:39:22.601Z,-5.2
2019-01-23T06:40:22.499Z,-5.3
2019-01-23T06:41:22.423Z,-5.3
2019-01-23T06:42:22.303Z,-5.3
2019-01-23T06:43:22.271Z,-5.3
2019-01-23T06:44:22.152Z,-5.3
2019-01-23T06:45:22.033Z,-5.4
2019-01-23T06:46:21.960Z,-5.4
2019-01-23T06:47:21.901Z,-5.4
2019-01-23T06:48:21.806Z,-5.4
2019-01-23T06:49:22.113Z,-5.4
2019-01-23T06:50:22.017Z,-5.5
2019-01-23T06:51:21.909Z,-5.5
2019-01-23T06:52:21.816Z,-5.4
2019-01-23T06:53:21.730Z,-5.4
2019-01-23T06:54:21.623Z,-5.3
2019-01-23T06:55:21.526Z,-5.2
2019-01-23T06:59:20.990Z,-5
2019-01-23T07:00:20.927Z,-5
2019-01-23T07:01:20.822Z,-5
2019-01-23T07:02:20.736Z,-5.1
2019-01-23T07:03:20.635Z,-5.1
2019-01-23T07:04:20.502Z,-5.1
2019-01-23T07:05:20.400Z,-5.1
2019-01-23T07:06:20.296Z,-5.2
2019-01-23T07:07:20.206Z,-5.3
2019-01-23T07:08:20.100Z,-5.2
2019-01-23T07:09:20.391Z,-5.3
2019-01-23T07:10:20.288Z,-5.3
2019-01-23T07:11:20.184Z,-5.4
2019-01-23T07:12:20.093Z,-5.4
2019-01-23T07:13:19.972Z,-5.4
2019-01-23T07:14:19.860Z,-5.5
2019-01-23T07:15:19.748Z,-5.5
2019-01-23T07:16:19.638Z,-5.6
2019-01-23T07:17:19.540Z,-5.6
2019-01-23T07:18:19.431Z,-5.7
2019-01-23T07:19:19.722Z,-5.7
2019-01-23T07:20:19.618Z,-5.7
2019-01-23T07:21:19.515Z,-5.7
2019-01-23T07:22:19.414Z,-5.7
2019-01-23T07:23:19.311Z,-5.7
2019-01-23T07:24:19.186Z,-5.7
2019-01-23T07:25:19.072Z,-5.7
2019-01-23T07:26:18.972Z,-5.7
2019-01-23T07:27:18.882Z,-5.7
2019-01-23T07:28:18.753Z,-5.7
2019-01-23T07:29:19.385Z,-5.8
2019-01-23T07:30:24.982Z,-5.8
2019-01-23T07:31:24.884Z,-5.8
2019-01-23T07:32:24.806Z,-5.7
2019-01-23T07:33:24.691Z,-5.7
2019-01-23T07:34:24.586Z,-5.7
2019-01-23T07:35:24.464Z,-5.7
2019-01-23T07:36:24.355Z,-5.7
2019-01-23T07:37:24.236Z,-5.7
2019-01-23T07:38:24.146Z,-5.7
2019-01-23T07:39:24.456Z,-5.8
2019-01-23T07:40:24.354Z,-5.8
2019-01-23T07:41:24.231Z,-5.7
2019-01-23T07:42:24.118Z,-5.7
2019-01-23T07:43:24.034Z,-5.7
2019-01-23T07:44:23.910Z,-5.7
2019-01-23T07:45:23.806Z,-5.7
2019-01-23T07:46:23.698Z,-5.7
2019-01-23T07:47:23.592Z,-5.7
2019-01-23T07:48:23.502Z,-5.7
2019-01-23T07:49:23.840Z,-5.7
2019-01-23T07:50:23.751Z,-5.7
2019-01-23T07:51:23.626Z,-5.7
2019-01-23T07:52:23.510Z,-5.7
2019-01-23T07:53:23.386Z,-5.7
2019-01-23T07:54:23.322Z,-5.7
2019-01-23T07:55:23.214Z,-5.7
2019-01-23T07:56:23.168Z,-5.7
2019-01-23T07:57:23.078Z,-5.7
2019-01-23T07:58:22.959Z,-5.7
2019-01-23T07:59:23.290Z,-5.7
2019-01-23T08:00:23.182Z,-5.7
2019-01-23T08:01:23.083Z,-5.6
2019-01-23T08:02:22.986Z,-5.6
2019-01-23T08:03:22.871Z,-5.6
2019-01-23T08:04:22.789Z,-5.6
2019-01-23T08:05:22.684Z,-5.6
2019-01-23T08:06:22.578Z,-5.6
2019-01-23T08:07:22.503Z,-5.6
2019-01-23T08:08:22.410Z,-5.6
2019-01-23T08:09:22.773Z,-5.6
2019-01-23T08:10:22.680Z,-5.6
2019-01-23T08:11:22.559Z,-5.6
2019-01-23T08:12:22.456Z,-5.5
2019-01-23T08:13:22.514Z,-5.4
2019-01-23T08:14:22.412Z,-5.2
2019-01-23T08:18:21.496Z,-4.9
2019-01-23T08:19:21.821Z,-4.8
2019-01-23T08:20:21.723Z,-4.8
2019-01-23T08:21:21.624Z,-4.8
2019-01-23T08:22:21.548Z,-4.8
2019-01-23T08:23:21.445Z,-4.9
2019-01-23T08:24:21.334Z,-4.9
2019-01-23T08:25:21.228Z,-4.9
2019-01-23T08:26:21.144Z,-4.9
2019-01-23T08:27:21.014Z,-4.9
2019-01-23T08:28:20.903Z,-4.9
2019-01-23T08:29:21.230Z,-4.9
2019-01-23T08:30:21.108Z,-5
2019-01-23T08:31:21.002Z,-5
2019-01-23T08:32:20.908Z,-5
2019-01-23T08:33:20.792Z,-4.9
2019-01-23T08:34:20.681Z,-5
2019-01-23T08:35:20.567Z,-4.9
2019-01-23T08:36:20.498Z,-4.9
2019-01-23T08:37:20.377Z,-4.9
2019-01-23T08:38:20.271Z,-4.8
2019-01-23T08:39:20.588Z,-4.8
2019-01-23T08:40:20.474Z,-4.9
2019-01-23T08:41:20.348Z,-4.9
2019-01-23T08:42:20.266Z,-4.9
2019-01-23T08:43:20.148Z,-4.9
2019-01-23T08:44:20.061Z,-4.8
2019-01-23T08:47:19.398Z,-4.5
2019-01-23T08:49:19.480Z,-4.4
2019-01-23T08:50:19.366Z,-4.4
2019-01-23T08:51:19.444Z,-4.3
2019-01-23T08:52:19.330Z,-4.3
2019-01-23T08:53:19.221Z,-4.3
2019-01-23T08:54:19.117Z,-4.2
2019-01-23T08:55:19.003Z,-4.2
2019-01-23T08:56:18.911Z,-4.3
2019-01-23T08:57:18.807Z,-4.3
2019-01-23T08:58:18.674Z,-4.3
2019-01-23T08:59:18.991Z,-4.3
2019-01-23T09:00:18.881Z,-4.3
2019-01-23T09:01:18.768Z,-4.3
2019-01-23T09:02:18.692Z,-4.3
2019-01-23T09:03:18.574Z,-4.3
2019-01-23T09:04:18.458Z,-4.3
2019-01-23T09:05:18.334Z,-4.3
2019-01-23T09:06:18.228Z,-4.3
2019-01-23T09:07:18.128Z,-4.3
2019-01-23T09:08:18.042Z,-4.3
2019-01-23T09:09:18.328Z,-4.3
2019-01-23T09:10:18.230Z,-4.3
2019-01-23T09:11:18.125Z,-4.3
2019-01-23T09:12:18.038Z,-4.3
2019-01-23T09:13:17.960Z,-4.3
2019-01-23T09:14:17.847Z,-4.3
2019-01-23T09:15:17.745Z,-4.2
2019-01-23T09:16:17.654Z,-4.2
2019-01-23T09:17:17.555Z,-4.1
2019-01-23T09:18:17.454Z,-4
2019-01-23T09:19:17.776Z,-4
2019-01-23T09:20:17.662Z,-4
2019-01-23T09:21:17.553Z,-4
2019-01-23T09:22:17.430Z,-3.9
2019-01-23T09:23:17.359Z,-3.9
2019-01-23T09:24:17.253Z,-3.8
2019-01-23T09:25:17.128Z,-3.8
2019-01-23T09:26:17.018Z,-3.7
2019-01-23T09:27:16.919Z,-3.7
2019-01-23T09:28:16.811Z,-3.7
2019-01-23T09:29:17.163Z,-3.9
2019-01-23T09:30:17.055Z,-3.8
2019-01-23T09:31:16.937Z,-3.8
2019-01-23T09:32:16.831Z,-3.8
2019-01-23T09:33:16.716Z,-3.8
2019-01-23T09:34:16.635Z,-3.8
2019-01-23T09:35:16.527Z,-3.8
2019-01-23T09:36:16.417Z,-3.8
2019-01-23T09:37:16.311Z,-3.8
2019-01-23T09:38:16.179Z,-3.8
2019-01-23T09:39:16.558Z,-3.8
2019-01-23T09:40:16.438Z,-3.9
2019-01-23T09:41:17.837Z,-3.9
2019-01-23T09:42:17.725Z,-3.9
2019-01-23T09:43:17.619Z,-3.8
2019-01-23T09:44:17.546Z,-3.9
2019-01-23T09:45:17.433Z,-3.8
2019-01-23T09:46:17.329Z,-3.8
2019-01-23T09:47:17.222Z,-3.7
2019-01-23T09:48:17.127Z,-3.6
2019-01-23T09:49:17.447Z,-3.5
2019-01-23T09:50:17.360Z,-3.5
2019-01-23T09:51:17.265Z,-3.4
2019-01-23T09:52:17.149Z,-3.3
2019-01-23T09:53:17.035Z,-3.3
2019-01-23T09:54:16.943Z,-3.2
2019-01-23T09:55:16.852Z,-3.1
2019-01-23T09:56:16.750Z,-3.3
2019-01-23T09:57:16.680Z,-3.7
2019-01-23T09:58:16.571Z,-3.7
2019-01-23T09:59:16.868Z,-3.6
2019-01-23T10:00:16.786Z,-3.5
2019-01-23T10:01:16.686Z,-3.3
2019-01-23T10:02:16.565Z,-3.3
2019-01-23T10:03:23.637Z,-3.3
2019-01-23T10:04:23.528Z,-3.5
2019-01-23T10:05:23.443Z,-3.5
2019-01-23T10:06:23.338Z,-3.5
2019-01-23T10:07:23.239Z,-3.5
2019-01-23T10:08:23.132Z,-3.5
2019-01-23T10:09:23.442Z,-3.5
2019-01-23T10:10:23.327Z,-3.5
2019-01-23T10:11:23.243Z,-3.5
2019-01-23T10:12:23.133Z,-3.5
2019-01-23T10:13:23.032Z,-3.5
2019-01-23T10:14:22.909Z,-3.5
2019-01-23T10:15:22.803Z,-3.4
2019-01-23T10:16:22.703Z,-3.5
2019-01-23T10:17:22.595Z,-3.5
2019-01-23T10:18:22.497Z,-3.5
2019-01-23T10:19:26.131Z,-3.5
2019-01-23T10:20:26.023Z,-3.6
2019-01-23T10:21:25.946Z,-3.6
2019-01-23T10:22:25.841Z,-3.6
2019-01-23T10:23:25.737Z,-3.5
2019-01-23T10:24:25.617Z,-3.5
2019-01-23T10:25:25.499Z,-3.4
2019-01-23T10:26:25.373Z,-3.3
2019-01-23T10:27:25.282Z,-3.3
2019-01-23T10:28:26.806Z,-3.3
2019-01-23T10:29:27.234Z,-3.3
2019-01-23T10:30:27.119Z,-3.4
2019-01-23T10:31:27.010Z,-3.3
2019-01-23T10:32:26.935Z,-3.2
2019-01-23T10:33:26.813Z,-3.2
2019-01-23T10:34:26.712Z,-3.1
2019-01-23T10:35:26.598Z,-3.2
2019-01-23T10:36:26.482Z,-3.2
2019-01-23T10:37:26.385Z,-3.2
2019-01-23T10:38:26.325Z,-3.2
2019-01-23T10:39:26.649Z,-3.3
2019-01-23T10:40:26.539Z,-3.2
2019-01-23T10:41:26.429Z,-3.2
2019-01-23T10:42:26.319Z,-3.3
2019-01-23T10:43:26.225Z,-3.3
2019-01-23T10:44:26.109Z,-3.4
2019-01-23T10:45:26.002Z,-3.5
2019-01-23T10:46:25.890Z,-3.6
2019-01-23T10:47:25.953Z,-3.5
2019-01-23T10:48:25.883Z,-3.6
2019-01-23T10:49:26.201Z,-3.6
2019-01-23T10:50:26.087Z,-3.7
2019-01-23T10:51:25.963Z,-3.7
2019-01-23T10:52:25.884Z,-3.6
2019-01-23T10:53:25.794Z,-3.7
2019-01-23T10:54:25.701Z,-3.6
2019-01-23T10:55:25.595Z,-3.5
2019-01-23T10:56:25.527Z,-3.4
2019-01-23T10:57:25.509Z,-3.5
2019-01-23T10:58:25.435Z,-3.5
2019-01-23T10:59:25.814Z,-3.5
2019-01-23T11:00:25.706Z,-3.5
2019-01-23T11:01:25.619Z,-3.5
2019-01-23T11:02:25.925Z,-3.4
2019-01-23T11:03:25.825Z,-3.4
2019-01-23T11:04:25.749Z,-3.5
2019-01-23T11:05:25.634Z,-3.4
2019-01-23T11:06:25.519Z,-3.3
2019-01-23T11:07:25.560Z,-3.3
2019-01-23T11:08:25.453Z,-3.3
2019-01-23T11:09:26.153Z,-3.2
2019-01-23T11:10:26.503Z,-3.1
2019-01-23T11:11:26.407Z,-3.1
2019-01-23T11:12:26.315Z,-3.1
2019-01-23T11:13:26.366Z,-3.1
2019-01-23T11:14:26.278Z,-3.1
2019-01-23T11:15:26.152Z,-3.2
2019-01-23T11:16:26.030Z,-3.2
2019-01-23T11:17:26.068Z,-3.1
2019-01-23T11:18:25.959Z,-3.1
2019-01-23T11:19:26.344Z,-3.1
2019-01-23T11:20:26.228Z,-3.1
2019-01-23T11:21:26.132Z,-3
2019-01-23T11:22:26.004Z,-2.9
2019-01-23T11:23:25.898Z,-3
2019-01-23T11:24:25.817Z,-3.1
2019-01-23T11:25:25.706Z,-3
2019-01-23T11:26:25.608Z,-3
2019-01-23T11:27:25.604Z,-3
2019-01-23T11:28:25.514Z,-3
2019-01-23T11:29:25.836Z,-3
2019-01-23T11:30:25.723Z,-3.1
2019-01-23T11:31:25.609Z,-3
2019-01-23T11:32:25.489Z,-2.9
2019-01-23T11:33:25.386Z,-3
2019-01-23T11:34:25.286Z,-2.9
2019-01-23T11:35:25.192Z,-2.9
2019-01-23T11:36:25.081Z,-2.9
2019-01-23T11:37:24.961Z,-2.9
2019-01-23T11:38:24.880Z,-2.9
2019-01-23T11:39:25.194Z,-2.8
2019-01-23T11:40:25.114Z,-2.7
2019-01-23T11:41:25.020Z,-2.7
2019-01-23T11:42:24.899Z,-2.7
2019-01-23T11:43:24.788Z,-2.6
2019-01-23T11:44:24.733Z,-2.7
2019-01-23T11:45:24.674Z,-2.6
2019-01-23T11:46:24.599Z,-2.6
2019-01-23T11:47:24.623Z,-2.6
2019-01-23T11:48:24.522Z,-2.6
2019-01-23T11:49:24.814Z,-2.6
2019-01-23T11:50:24.726Z,-2.6
2019-01-23T11:51:24.628Z,-2.6
2019-01-23T11:52:24.532Z,-2.6
2019-01-23T11:53:24.436Z,-2.5
2019-01-23T11:54:24.324Z,-2.6
2019-01-23T11:55:24.232Z,-2.5
2019-01-23T11:56:24.108Z,-2.3
2019-01-23T11:57:23.985Z,-2.3
2019-01-23T11:58:23.886Z,-2.5
2019-01-23T11:59:24.192Z,-2.4
2019-01-23T12:00:24.090Z,-2.3
2019-01-23T12:01:28.316Z,-2.3
2019-01-23T12:02:31.644Z,-2.2
2019-01-23T12:03:31.524Z,-2.2
2019-01-23T12:04:31.413Z,-2.1
2019-01-23T12:05:31.329Z,-2.1
2019-01-23T12:06:31.222Z,-2.3
2019-01-23T12:07:31.111Z,-2.3
2019-01-23T12:08:31.006Z,-2.4
2019-01-23T12:09:31.315Z,-2.4
2019-01-23T12:10:31.220Z,-2.4
2019-01-23T12:11:31.108Z,-2.4
2019-01-23T12:12:30.988Z,-2.3
2019-01-23T12:13:30.884Z,-2.4
2019-01-23T12:14:30.770Z,-2.3
2019-01-23T12:15:30.676Z,-2.4
2019-01-23T12:16:30.568Z,-2.4
2019-01-23T12:17:30.469Z,-2.7
2019-01-23T12:18:30.368Z,-2.6
2019-01-23T12:19:30.751Z,-2.6
2019-01-23T12:20:30.656Z,-2.6
2019-01-23T12:21:30.544Z,-2.6
2019-01-23T12:22:30.431Z,-2.5
2019-01-23T12:23:30.356Z,-2.6
2019-01-23T12:24:30.256Z,-2.5
2019-01-23T12:25:30.151Z,-2.5
2019-01-23T12:26:30.057Z,-2.5
2019-01-23T12:27:29.952Z,-2.5
2019-01-23T12:28:29.847Z,-2.5
2019-01-23T12:29:30.160Z,-2.5
2019-01-23T12:30:30.234Z,-2.5
2019-01-23T12:31:35.791Z,-2.5
2019-01-23T12:32:35.683Z,-2.4
2019-01-23T12:33:35.568Z,-2.3
2019-01-23T12:34:35.459Z,-2.3
2019-01-23T12:35:35.365Z,-2.3
2019-01-23T12:36:35.272Z,-2.2
2019-01-23T12:37:35.179Z,-2.2
2019-01-23T12:38:35.071Z,-2.1
2019-01-23T12:39:35.378Z,1.1
2019-01-23T12:40:35.264Z,-2.2
2019-01-23T12:41:35.163Z,-2.2
2019-01-23T12:42:35.065Z,-2.2
2019-01-23T12:43:34.956Z,-2.2
2019-01-23T12:44:34.842Z,-2.1
2019-01-23T12:45:34.745Z,-2.1
2019-01-23T12:46:34.651Z,-2.1
2019-01-23T12:47:34.560Z,-2
2019-01-23T12:48:34.444Z,-2.1
2019-01-23T12:49:34.805Z,-2.1
2019-01-23T12:50:34.692Z,-2
2019-01-23T12:51:34.584Z,-2.1
2019-01-23T12:52:34.550Z,-2.2
2019-01-23T12:53:34.438Z,-2.1
2019-01-23T12:54:34.315Z,-2.1
2019-01-23T12:55:34.210Z,-2.2
2019-01-23T12:56:35.061Z,-2.2
2019-01-23T12:57:34.975Z,-2.2
2019-01-23T12:58:34.867Z,-2.1
2019-01-23T12:59:35.219Z,-2.1
2019-01-23T13:00:35.103Z,-2.1
2019-01-23T13:01:41.751Z,-2.1
2019-01-23T13:02:42.310Z,-2.2
2019-01-23T13:03:42.224Z,-2.1
2019-01-23T13:04:42.129Z,-2.1
2019-01-23T13:05:42.035Z,-2.1
2019-01-23T13:06:43.218Z,-2.1
2019-01-23T13:07:43.220Z,-2.1
2019-01-23T13:08:43.134Z,-2.2
2019-01-23T13:09:43.485Z,-2.3
2019-01-23T13:10:43.383Z,-2.3
2019-01-23T13:11:43.284Z,-2.3
2019-01-23T13:12:43.213Z,-2.3
2019-01-23T13:13:43.127Z,-2.2
2019-01-23T13:14:43.021Z,-2.2
2019-01-23T13:15:42.920Z,-2.1
2019-01-23T13:16:42.831Z,-2.1
2019-01-23T13:17:42.725Z,-2.1
2019-01-23T13:18:42.627Z,-2
2019-01-23T13:19:43.384Z,-2
2019-01-23T13:20:43.270Z,-2
2019-01-23T13:21:43.172Z,-2
2019-01-23T13:22:43.068Z,-2
2019-01-23T13:23:42.987Z,-1.9
2019-01-23T13:24:42.863Z,-1.9
2019-01-23T13:25:42.739Z,-1.9
2019-01-23T13:26:42.635Z,-1.8
2019-01-23T13:27:42.527Z,-1.7
2019-01-23T13:28:42.409Z,-1.7
2019-01-23T13:29:42.737Z,-1.7
2019-01-23T13:30:42.940Z,-1.6
2019-01-23T13:31:49.808Z,-1.5
2019-01-23T13:32:49.705Z,-1.6
2019-01-23T13:33:49.603Z,-1.5
2019-01-23T13:34:50.818Z,-1.5
2019-01-23T13:35:50.825Z,-1.5
2019-01-23T13:36:50.709Z,-1.5
2019-01-23T13:37:50.597Z,-1.6
2019-01-23T13:38:50.487Z,-1.7
2019-01-23T13:39:50.827Z,-1.7
2019-01-23T13:40:50.745Z,-1.7
2019-01-23T13:41:50.631Z,-1.7
2019-01-23T13:42:50.519Z,-1.8
2019-01-23T13:43:50.552Z,-1.8
2019-01-23T13:44:50.492Z,-1.8
2019-01-23T13:45:50.384Z,-1.8
2019-01-23T13:46:50.280Z,-1.9
2019-01-23T13:47:50.195Z,-1.9
2019-01-23T13:48:50.538Z,-1.9
2019-01-23T13:49:50.859Z,-1.9
2019-01-23T13:50:50.745Z,-1.9
2019-01-23T13:51:50.665Z,-1.9
2019-01-23T13:52:50.561Z,-1.8
2019-01-23T13:53:50.516Z,-1.8
2019-01-23T13:54:50.416Z,-1.9
2019-01-23T13:55:50.313Z,-1.9
2019-01-23T13:56:50.214Z,-1.9
2019-01-23T13:57:50.122Z,-2
2019-01-23T13:58:50.038Z,-1.9